Time;durP1;ratioP1;P1;durP2;ratioP2;P2;SDS_P1;SDS_P2;PMS_P1;PMS_P2;Temp;Humidity;BMP_temperature;BMP_pressure;BME280_temperature;BME280_humidity;BME280_pressure;Samples;Min_cycle;Max_cycle;Signal;HPM_P1;HPM_P2
2021/10/29 00:00:07;;;;;;;0.30;0.30;;;;;;;9.64;75.62;100952.66;4958290;28;20023;-69
2021/10/29 00:02:33;;;;;;;0.50;0.50;;;;;;;9.65;75.55;100951.81;4959752;28;20019;-70
2021/10/29 00:04:58;;;;;;;0.20;0.20;;;;;;;9.62;75.32;100958.72;4959106;28;20034;-70
2021/10/29 00:07:24;;;;;;;0.30;0.30;;;;;;;9.60;75.66;100960.38;4958614;28;20062;-71
2021/10/29 00:09:49;;;;;;;0.50;0.50;;;;;;;9.61;75.85;100950.81;4958109;28;20027;-70
2021/10/29 00:12:15;;;;;;;0.43;0.43;;;;;;;9.54;75.73;100954.94;4958270;28;20070;-70
2021/10/29 00:14:41;;;;;;;0.40;0.40;;;;;;;9.56;75.75;100949.75;4959463;28;20030;-69
2021/10/29 00:17:07;;;;;;;0.30;0.30;;;;;;;9.53;76.03;100950.53;4948648;28;20079;-71
2021/10/29 00:19:32;;;;;;;0.10;0.10;;;;;;;9.49;75.98;100948.66;4955882;28;20673;-70
2021/10/29 00:21:57;;;;;;;0.40;0.40;;;;;;;9.49;75.80;100949.53;4958500;28;20027;-70
2021/10/29 00:24:23;;;;;;;0.20;0.20;;;;;;;9.48;75.99;100954.72;4958959;28;20023;-70
2021/10/29 00:26:48;;;;;;;0.10;0.10;;;;;;;9.44;76.13;100950.22;4957940;28;20034;-70
2021/10/29 00:29:14;;;;;;;0.20;0.20;;;;;;;9.42;75.96;100946.66;4958177;28;20023;-70
2021/10/29 00:31:40;;;;;;;0.30;0.30;;;;;;;9.38;76.04;100942.16;4955328;28;20165;-70
2021/10/29 00:34:05;;;;;;;0.30;0.30;;;;;;;9.38;76.39;100942.16;4958964;28;20027;-70
2021/10/29 00:36:31;;;;;;;0.40;0.40;;;;;;;9.34;76.58;100942.06;4958336;28;20042;-70
2021/10/29 00:38:56;;;;;;;0.33;0.33;;;;;;;9.31;76.68;100943.69;4958669;28;20030;-70
2021/10/29 00:41:22;;;;;;;0.30;0.30;;;;;;;9.25;76.38;100940.84;4958886;29;20039;-71
2021/10/29 00:43:48;;;;;;;0.33;0.27;;;;;;;9.28;76.13;100938.34;4959297;28;20039;-69
2021/10/29 00:46:13;;;;;;;0.20;0.20;;;;;;;9.29;76.48;100941.00;4958196;28;20337;-70
2021/10/29 00:48:38;;;;;;;0.13;0.13;;;;;;;9.36;75.43;100939.50;4959202;28;20034;-69
2021/10/29 00:51:04;;;;;;;0.20;0.20;;;;;;;9.37;76.18;100937.75;4957751;28;20043;-71
2021/10/29 00:53:31;;;;;;;0.27;0.27;;;;;;;9.34;76.27;100936.84;4958428;29;20286;-71
2021/10/29 00:55:57;;;;;;;1.70;0.40;;;;;;;9.39;75.71;100937.00;4958245;28;20339;-69
2021/10/29 00:58:23;;;;;;;0.30;0.30;;;;;;;9.41;75.75;100942.28;4958852;28;20027;-70
2021/10/29 01:00:49;;;;;;;0.30;0.30;;;;;;;9.40;75.86;100937.91;4958740;28;20038;-70
2021/10/29 01:03:14;;;;;;;0.23;0.23;;;;;;;9.41;75.78;100937.06;4958699;29;20305;-70
2021/10/29 01:05:40;;;;;;;0.10;0.10;;;;;;;9.40;75.80;100936.16;4957660;29;20429;-70
2021/10/29 01:08:06;;;;;;;0.30;0.30;;;;;;;9.39;75.88;100923.91;4957586;29;20094;-70
2021/10/29 01:10:31;;;;;;;0.20;0.20;;;;;;;9.39;75.86;100929.16;4957499;28;20094;-70
2021/10/29 01:12:57;;;;;;;0.30;0.30;;;;;;;9.52;74.90;100932.19;4958484;29;20039;-70
2021/10/29 01:15:23;;;;;;;0.40;0.40;;;;;;;9.52;74.70;100921.75;4958348;28;20027;-70
2021/10/29 01:17:48;;;;;;;0.30;0.30;;;;;;;9.52;75.12;100921.75;4957436;29;20085;-69
2021/10/29 01:20:23;;;;;;;0.60;0.60;;;;;;;9.51;75.37;100928.69;4960269;28;20293;-70
2021/10/29 01:22:48;;;;;;;0.30;0.30;;;;;;;9.50;74.91;100921.69;4963963;29;20680;-71
2021/10/29 01:25:14;;;;;;;0.40;0.40;;;;;;;9.53;74.83;100923.53;4964834;29;20027;-70
2021/10/29 01:27:39;;;;;;;0.17;0.17;;;;;;;9.56;74.75;100921.00;4964736;28;20409;-70
2021/10/29 01:30:06;;;;;;;0.27;0.27;;;;;;;9.61;74.39;100902.00;4964424;28;20035;-70
2021/10/29 01:32:32;;;;;;;0.33;0.33;;;;;;;9.59;74.52;100906.31;4965312;28;20042;-71
2021/10/29 01:34:57;;;;;;;0.30;0.30;;;;;;;9.59;74.66;100898.47;4964797;28;20063;-71
2021/10/29 01:37:22;;;;;;;0.20;0.20;;;;;;;9.60;74.43;100900.22;4964320;28;20035;-70
2021/10/29 01:39:48;;;;;;;0.40;0.40;;;;;;;9.59;74.79;100900.22;4964935;28;20294;-71
2021/10/29 01:42:14;;;;;;;0.30;0.30;;;;;;;9.62;73.97;100895.97;4964556;28;20069;-70
2021/10/29 01:44:42;;;;;;;0.20;0.20;;;;;;;9.62;74.34;100895.97;4965053;28;20043;-70
2021/10/29 01:47:08;;;;;;;0.40;0.40;;;;;;;9.66;74.16;100886.50;4963238;28;20027;-69
2021/10/29 01:49:34;;;;;;;0.40;0.40;;;;;;;9.66;74.06;100890.81;4964780;28;20090;-71
2021/10/29 01:52:00;;;;;;;0.50;0.50;;;;;;;9.72;73.17;100872.72;4964068;29;20341;-71
2021/10/29 01:54:25;;;;;;;0.30;0.30;;;;;;;9.72;73.40;100877.97;4965342;28;20418;-70
2021/10/29 01:56:50;;;;;;;0.23;0.23;;;;;;;9.73;73.76;100878.00;4964821;28;20110;-71
2021/10/29 01:59:16;;;;;;;0.30;0.30;;;;;;;9.65;74.35;100874.22;4964282;29;20173;-71
2021/10/29 02:01:41;;;;;;;0.40;0.40;;;;;;;9.60;74.51;100868.00;4964533;28;20043;-71
2021/10/29 02:04:07;;;;;;;0.43;0.43;;;;;;;9.57;74.38;100874.00;4963641;29;20146;-71
2021/10/29 02:06:32;;;;;;;0.30;0.30;;;;;;;9.61;74.24;100854.94;4964792;28;20035;-70
2021/10/29 02:08:58;;;;;;;0.20;0.20;;;;;;;9.68;73.78;100856.06;4964584;28;20027;-70
2021/10/29 02:11:24;;;;;;;0.43;0.43;;;;;;;9.67;73.76;100854.28;4964207;29;20027;-71
2021/10/29 02:13:49;;;;;;;0.30;0.30;;;;;;;9.72;73.24;100854.44;4965123;28;20038;-71
2021/10/29 02:16:14;;;;;;;0.30;0.30;;;;;;;9.72;73.01;100851.81;4963140;28;20053;-71
2021/10/29 02:18:40;;;;;;;0.20;0.20;;;;;;;9.65;74.45;100855.06;4963786;28;20030;-70
2021/10/29 02:21:05;;;;;;;0.30;0.30;;;;;;;9.59;74.18;100846.16;4964705;28;20062;-70
2021/10/29 02:23:30;;;;;;;0.50;0.50;;;;;;;9.57;74.43;100840.00;4964858;28;20027;-70
2021/10/29 02:25:56;;;;;;;0.30;0.30;;;;;;;9.52;74.80;100844.19;4964127;28;20030;-70
2021/10/29 02:28:22;;;;;;;0.33;0.33;;;;;;;9.49;74.75;100842.38;4964464;29;20430;-71
2021/10/29 02:30:49;;;;;;;0.30;0.30;;;;;;;9.55;74.16;100841.69;4963615;28;20390;-70
2021/10/29 02:33:16;;;;;;;0.30;0.30;;;;;;;9.58;73.74;100838.28;4960327;28;20038;-71
2021/10/29 02:35:43;;;;;;;0.50;0.50;;;;;;;9.59;74.35;100840.94;4960477;28;20183;-70
2021/10/29 02:38:08;;;;;;;0.37;0.37;;;;;;;9.60;73.62;100845.31;4961085;28;20038;-70
2021/10/29 02:40:34;;;;;;;0.60;0.60;;;;;;;9.55;74.26;100832.97;4961539;28;20039;-69
2021/10/29 02:42:59;;;;;;;0.30;0.30;;;;;;;9.61;73.42;100831.41;4961334;28;20038;-70
2021/10/29 02:45:25;;;;;;;0.40;0.40;;;;;;;9.66;73.55;100835.91;4960599;29;20046;-71
2021/10/29 02:47:50;;;;;;;0.30;0.30;;;;;;;9.64;73.55;100837.59;4960583;28;20093;-70
2021/10/29 02:50:17;;;;;;;0.27;0.27;;;;;;;9.62;73.49;100828.00;4944247;29;20051;-71
2021/10/29 02:52:43;;;;;;;0.43;0.43;;;;;;;9.65;73.14;100821.06;4961400;28;20409;-70
2021/10/29 02:55:09;;;;;;;0.20;0.20;;;;;;;9.64;73.31;100817.56;4961122;28;20027;-71
2021/10/29 02:57:36;;;;;;;0.50;0.50;;;;;;;9.67;73.03;100825.53;4961222;28;20031;-70
2021/10/29 03:00:03;;;;;;;0.37;0.37;;;;;;;9.64;73.24;100830.63;4959777;29;20058;-71
2021/10/29 03:02:28;;;;;;;0.30;0.30;;;;;;;9.62;73.13;100821.84;4954537;28;20047;-70
2021/10/29 03:04:53;;;;;;;0.30;0.30;;;;;;;9.60;73.33;100823.53;4949533;28;20043;-72
2021/10/29 03:07:19;;;;;;;0.50;0.50;;;;;;;9.65;73.28;100818.47;4961016;28;20374;-70
2021/10/29 03:09:44;;;;;;;0.23;0.23;;;;;;;9.62;73.40;100819.25;4960687;29;20097;-70
2021/10/29 03:12:10;;;;;;;0.40;0.40;;;;;;;9.60;73.44;100813.09;4960057;29;20031;-70
2021/10/29 03:14:35;;;;;;;0.30;0.30;;;;;;;9.57;73.49;100816.50;4959622;28;20039;-70
2021/10/29 03:17:00;;;;;;;0.20;0.20;;;;;;;9.60;73.66;100815.69;4959813;28;20307;-72
2021/10/29 03:19:25;;;;;;;0.23;0.23;;;;;;;9.56;73.35;100806.88;4960712;29;20290;-70
2021/10/29 03:21:51;;;;;;;0.10;0.10;;;;;;;9.57;73.46;100813.88;4960047;29;20070;-70
2021/10/29 03:24:16;;;;;;;0.37;0.37;;;;;;;9.55;73.59;100806.81;4960546;29;20119;-70
2021/10/29 03:26:41;;;;;;;0.10;0.10;;;;;;;9.54;73.35;100803.31;4961190;28;20034;-70
2021/10/29 03:29:07;;;;;;;0.40;0.40;;;;;;;9.60;73.24;100800.88;4960505;28;20114;-70
2021/10/29 03:31:32;;;;;;;0.20;0.20;;;;;;;9.64;72.91;100803.63;4960059;29;20110;-71
2021/10/29 03:33:58;;;;;;;0.27;0.27;;;;;;;9.63;73.34;100797.50;4960408;28;20054;-71
2021/10/29 03:36:23;;;;;;;0.30;0.30;;;;;;;9.55;73.93;100804.19;4960209;29;20110;-70
2021/10/29 03:39:00;;;;;;;0.40;0.40;;;;;;;9.53;73.72;100798.03;4960533;28;20381;-70
2021/10/29 03:41:28;;;;;;;0.27;0.27;;;;;;;9.53;73.25;100798.03;4960479;28;20409;-70
2021/10/29 03:43:58;;;;;;;0.70;0.70;;;;;;;9.51;73.62;100802.34;4958476;28;20101;-71
2021/10/29 03:46:26;;;;;;;0.30;0.30;;;;;;;9.45;74.25;100798.69;4959717;28;20105;-71
2021/10/29 03:49:00;;;;;;;0.30;0.30;;;;;;;9.43;74.09;100802.06;4960259;28;20031;-70
2021/10/29 03:51:42;;;;;;;0.30;0.30;;;;;;;9.45;74.00;100798.69;4960258;28;20034;-70
2021/10/29 03:54:21;;;;;;;0.30;0.30;;;;;;;9.43;74.33;100805.59;4960174;28;20047;-70
2021/10/29 03:57:06;;;;;;;0.33;0.33;;;;;;;9.44;74.47;100798.63;4959820;28;20023;-70
2021/10/29 03:59:32;;;;;;;0.40;0.40;;;;;;;9.42;74.29;100787.25;4960194;28;20027;-71
2021/10/29 04:01:58;;;;;;;0.40;0.40;;;;;;;9.44;74.20;100801.22;4958182;29;20058;-70
2021/10/29 04:04:23;;;;;;;0.30;0.30;;;;;;;9.47;73.74;100789.16;4960124;29;20039;-71
2021/10/29 04:06:48;;;;;;;0.30;0.30;;;;;;;9.52;74.34;100791.91;4959298;29;20038;-69
2021/10/29 04:09:14;;;;;;;0.30;0.30;;;;;;;9.55;73.46;100797.25;4959413;29;20037;-70
2021/10/29 04:11:40;;;;;;;0.30;0.30;;;;;;;9.57;73.34;100792.97;4959747;28;20398;-69
2021/10/29 04:14:10;;;;;;;0.20;0.20;;;;;;;9.52;73.95;100797.13;4959602;28;20033;-69
2021/10/29 04:16:39;;;;;;;0.40;0.40;;;;;;;9.45;74.21;100792.56;4958893;28;20031;-69
2021/10/29 04:19:13;;;;;;;0.40;0.40;;;;;;;9.42;74.15;100785.53;4943102;29;20035;-70
2021/10/29 04:21:39;;;;;;;0.30;0.30;;;;;;;9.43;74.30;100789.00;4959392;28;20035;-70
2021/10/29 04:24:05;;;;;;;0.27;0.27;;;;;;;9.46;74.04;100783.88;4959433;28;20321;-69
2021/10/29 04:26:31;;;;;;;0.30;0.30;;;;;;;9.45;74.05;100779.47;4958025;29;20053;-69
2021/10/29 04:28:57;;;;;;;0.20;0.20;;;;;;;9.39;74.42;100780.19;4958747;28;20106;-69
2021/10/29 04:31:29;;;;;;;0.40;0.40;;;;;;;9.34;74.87;100782.66;4959168;29;20394;-69
2021/10/29 04:33:54;;;;;;;0.23;0.23;;;;;;;9.35;74.82;100779.19;4959231;28;20031;-70
2021/10/29 04:36:20;;;;;;;0.20;0.20;;;;;;;9.37;74.64;100771.41;4959158;28;20278;-69
2021/10/29 04:38:46;;;;;;;0.30;0.30;;;;;;;9.46;74.11;100768.19;4959405;28;20036;-70
2021/10/29 04:41:12;;;;;;;0.53;0.53;;;;;;;9.48;74.08;100758.69;4958158;28;20039;-69
2021/10/29 04:43:38;;;;;;;0.20;0.20;;;;;;;9.48;74.24;100759.56;4959500;28;20204;-69
2021/10/29 04:46:04;;;;;;;0.50;0.50;;;;;;;9.52;73.96;100759.69;4958469;29;20058;-71
2021/10/29 04:48:30;;;;;;;0.23;0.23;;;;;;;9.51;74.01;100766.63;4958887;28;20027;-69
2021/10/29 04:50:55;;;;;;;0.30;0.30;;;;;;;9.55;73.65;100763.28;4958117;29;20374;-69
2021/10/29 04:53:21;;;;;;;0.40;0.40;;;;;;;9.49;73.95;100748.25;4958804;28;20035;-70
2021/10/29 04:55:46;;;;;;;0.30;0.30;;;;;;;9.45;74.36;100749.03;4958798;28;20031;-69
2021/10/29 04:58:11;;;;;;;0.20;0.20;;;;;;;9.42;74.39;100750.66;4953655;29;20031;-69
2021/10/29 05:00:37;;;;;;;0.20;0.20;;;;;;;9.45;74.31;100753.34;4939551;29;20027;-70
2021/10/29 05:03:05;;;;;;;0.47;0.47;;;;;;;9.45;74.43;100750.72;4939598;29;20031;-70
2021/10/29 05:05:31;;;;;;;1.27;0.50;;;;;;;9.47;74.25;100744.72;4939803;29;20043;-70
2021/10/29 05:07:57;;;;;;;0.43;0.43;;;;;;;9.57;73.32;100745.00;4952457;29;20039;-69
2021/10/29 05:10:22;;;;;;;0.30;0.30;;;;;;;9.58;73.62;100736.31;4941501;29;20046;-70
2021/10/29 05:12:48;;;;;;;0.30;0.30;;;;;;;9.60;73.67;100739.88;4959075;29;20295;-70
2021/10/29 05:15:16;;;;;;;0.50;0.50;;;;;;;9.60;73.55;100740.75;4958085;28;20059;-69
2021/10/29 05:17:43;;;;;;;0.23;0.23;;;;;;;9.64;73.23;100735.63;4958550;28;20035;-70
2021/10/29 05:20:09;;;;;;;0.47;0.47;;;;;;;9.65;73.21;100733.06;4958462;28;20405;-69
2021/10/29 05:22:34;;;;;;;0.30;0.30;;;;;;;9.62;73.42;100736.47;4959084;28;20027;-69
2021/10/29 05:25:00;;;;;;;0.40;0.40;;;;;;;9.71;72.75;100729.75;4957697;29;20038;-69
2021/10/29 05:27:25;;;;;;;0.30;0.30;;;;;;;9.69;72.94;100726.19;4958118;28;20097;-68
2021/10/29 05:29:50;;;;;;;0.57;0.57;;;;;;;9.72;72.39;100731.53;4958532;28;20143;-70
2021/10/29 05:32:15;;;;;;;0.43;0.40;;;;;;;9.71;72.78;100730.63;4958488;29;20037;-70
2021/10/29 05:34:41;;;;;;;0.40;0.40;;;;;;;9.70;73.19;100726.25;4958567;28;20390;-70
2021/10/29 05:37:06;;;;;;;0.53;0.53;;;;;;;9.72;72.47;100727.16;4958118;28;20314;-70
2021/10/29 05:39:32;;;;;;;0.50;0.50;;;;;;;9.68;73.03;100727.03;4951852;28;20126;-70
2021/10/29 05:41:58;;;;;;;0.60;0.60;;;;;;;9.72;73.25;100718.47;4940832;29;20050;-70
2021/10/29 05:44:24;;;;;;;0.60;0.60;;;;;;;9.70;73.00;100726.25;4955276;28;20315;-70
2021/10/29 05:46:50;;;;;;;0.53;0.53;;;;;;;9.66;73.38;100713.94;4956960;28;20027;-71
2021/10/29 05:49:16;;;;;;;0.40;0.40;;;;;;;9.62;73.35;100722.50;4955657;28;20054;-70
2021/10/29 05:51:45;;;;;;;0.50;0.50;;;;;;;9.64;73.07;100717.34;4962363;28;20026;-70
2021/10/29 05:56:37;;;;;;;0.23;0.23;;;;;;;9.68;73.21;100712.25;4958406;28;20031;-70
2021/10/29 05:59:04;;;;;;;0.30;0.30;;;;;;;9.68;72.80;100708.72;4954120;29;20079;-70
2021/10/29 06:01:30;;;;;;;0.33;0.33;;;;;;;9.68;73.02;100709.63;4938411;29;20042;-70
2021/10/29 06:03:56;;;;;;;0.20;0.20;;;;;;;9.72;72.83;100715.84;4954364;28;20147;-69
2021/10/29 06:06:21;;;;;;;0.30;0.30;;;;;;;9.73;72.61;100708.03;4954560;28;20039;-74
2021/10/29 06:08:46;;;;;;;0.13;0.13;;;;;;;9.70;73.52;100718.41;4967578;28;20382;-70
2021/10/29 06:11:12;;;;;;;0.70;0.70;;;;;;;9.65;73.30;100716.50;4961106;28;20754;-68
2021/10/29 06:13:37;;;;;;;0.60;0.60;;;;;;;9.64;73.10;100706.88;4943227;29;20040;-69
2021/10/29 06:16:03;;;;;;;0.20;0.20;;;;;;;9.65;73.17;100713.88;4947745;28;20063;-70
2021/10/29 06:18:28;;;;;;;0.20;0.20;;;;;;;9.66;72.95;100710.41;4961841;28;20023;-70
2021/10/29 06:20:56;;;;;;;0.20;0.20;;;;;;;9.70;72.94;100720.13;4961688;29;20035;-69
2021/10/29 06:23:32;;;;;;;0.43;0.43;;;;;;;9.72;72.28;100710.59;4942806;28;20071;-69
2021/10/29 06:25:57;;;;;;;0.30;0.30;;;;;;;9.69;72.97;100703.56;4952509;29;20031;-68
2021/10/29 06:28:29;;;;;;;0.40;0.40;;;;;;;9.67;73.43;100714.81;4961546;28;20031;-70
2021/10/29 06:30:55;;;;;;;0.40;0.40;;;;;;;9.72;72.92;100716.72;4960993;29;20378;-69
2021/10/29 06:33:23;;;;;;;0.30;0.30;;;;;;;9.73;73.06;100723.72;4961707;28;20458;-70
2021/10/29 06:35:49;;;;;;;0.40;0.40;;;;;;;9.82;72.23;100714.34;4971966;28;20034;-70
2021/10/29 06:38:14;;;;;;;0.30;0.30;;;;;;;9.80;72.85;100719.56;4961681;28;20027;-70
2021/10/29 06:40:46;;;;;;;0.40;0.40;;;;;;;9.80;72.60;100714.34;4968696;28;20098;-70
2021/10/29 06:43:30;;;;;;;0.40;0.40;;;;;;;9.79;72.70;100717.81;4967026;28;20046;-69
2021/10/29 07:40:43;;;;;;;0.50;0.50;;;;;;;10.22;71.69;100681.47;4941374;29;20047;-70
2021/10/29 07:43:11;;;;;;;0.45;0.45;;;;;;;10.31;70.89;100680.84;4940268;29;20034;-71
2021/10/29 07:45:36;;;;;;;0.33;0.33;;;;;;;10.35;70.62;100684.44;4949855;28;20121;-70
2021/10/29 07:48:03;;;;;;;0.60;0.60;;;;;;;10.36;71.51;100678.34;4939713;29;20071;-69
2021/10/29 07:50:28;;;;;;;0.70;0.70;;;;;;;10.38;71.15;100684.50;4956221;29;20038;-70
2021/10/29 07:52:57;;;;;;;0.57;0.57;;;;;;;10.44;70.71;100671.63;4957802;28;20040;-71
2021/10/29 07:55:23;;;;;;;0.40;0.40;;;;;;;10.49;70.81;100676.97;4958481;29;20042;-70
2021/10/29 07:57:49;;;;;;;0.60;0.60;;;;;;;10.48;71.13;100669.97;4928180;29;20043;-71
2021/10/29 08:00:18;;;;;;;0.40;0.40;;;;;;;10.52;70.91;100677.09;4949858;29;20287;-71
2021/10/29 08:02:46;;;;;;;0.50;0.50;;;;;;;10.63;70.29;100672.13;4941150;29;20412;-70
2021/10/29 08:05:12;;;;;;;1.20;0.87;;;;;;;10.65;70.18;100654.72;4952889;29;20343;-70
2021/10/29 08:07:37;;;;;;;0.50;0.50;;;;;;;10.65;70.91;100667.81;4959071;28;20082;-70
2021/10/29 08:10:05;;;;;;;0.40;0.40;;;;;;;10.68;70.58;100665.25;4958222;29;20047;-70
2021/10/29 08:12:32;;;;;;;0.50;0.50;;;;;;;10.72;70.45;100667.97;4960080;28;20405;-70
2021/10/29 08:14:58;;;;;;;0.70;0.70;;;;;;;10.77;70.51;100667.22;4958835;28;20130;-71
2021/10/29 08:17:23;;;;;;;0.23;0.23;;;;;;;10.88;69.60;100662.25;4959606;29;20327;-71
2021/10/29 08:19:48;;;;;;;0.50;0.50;;;;;;;10.98;69.13;100665.09;4938816;29;20063;-71
2021/10/29 08:22:14;;;;;;;0.40;0.40;;;;;;;11.10;69.22;100653.16;4954639;29;20357;-70
2021/10/29 08:24:40;;;;;;;0.40;0.40;;;;;;;11.13;68.85;100641.00;4953606;28;20042;-70
2021/10/29 08:27:07;;;;;;;0.50;0.50;;;;;;;11.19;68.81;100649.84;4958096;28;20030;-70
2021/10/29 08:29:32;;;;;;;0.77;0.73;;;;;;;11.22;68.92;100642.06;4957401;28;20138;-71
2021/10/29 08:31:58;;;;;;;0.50;0.50;;;;;;;11.25;68.76;100632.53;4950875;28;20361;-71
2021/10/29 08:34:26;;;;;;;0.30;0.30;;;;;;;11.38;68.00;100632.78;4950667;28;20425;-75
2021/10/29 08:36:57;;;;;;;0.30;0.30;;;;;;;11.38;68.70;100628.44;4959129;28;20291;-72
2021/10/29 08:39:23;;;;;;;0.50;0.50;;;;;;;11.43;67.95;100628.56;4950848;28;20035;-69
2021/10/29 08:41:48;;;;;;;0.30;0.30;;;;;;;11.47;68.00;100635.66;4958291;28;20332;-70
2021/10/29 08:44:14;;;;;;;0.30;0.30;;;;;;;11.56;67.56;100615.72;4958874;28;20050;-71
2021/10/29 08:46:43;;;;;;;0.80;0.80;;;;;;;11.70;66.98;100629.09;4957770;28;20348;-70
2021/10/29 08:49:10;;;;;;;0.50;0.50;;;;;;;11.71;68.20;100625.63;4958980;28;20186;-70
2021/10/29 08:51:36;;;;;;;0.40;0.40;;;;;;;11.81;66.82;100620.59;4958321;29;20042;-70
2021/10/29 08:54:05;;;;;;;0.60;0.60;;;;;;;11.90;66.40;100625.13;4938392;29;20043;-70
2021/10/29 08:56:32;;;;;;;0.40;0.40;;;;;;;11.96;66.51;100625.25;4951955;29;20109;-70
2021/10/29 08:59:08;;;;;;;0.67;0.67;;;;;;;12.00;66.90;100638.44;4957780;29;20362;-70
2021/10/29 09:01:46;;;;;;;4.20;1.58;;;;;;;12.11;66.35;100626.44;4958534;28;20049;-70
2021/10/29 09:04:11;;;;;;;0.50;0.50;;;;;;;12.17;66.66;100629.16;4957879;29;20982;-70
2021/10/29 09:09:28;;;;;;;0.60;0.60;;;;;;;12.22;66.33;100618.75;4957626;29;20039;-70
2021/10/29 09:31:26;;;;;;;0.50;0.50;;;;;;;12.75;64.43;100598.59;4939422;29;20046;-70
2021/10/29 09:33:54;;;;;;;0.50;0.50;;;;;;;12.86;64.05;100602.28;4947680;29;20035;-72
2021/10/29 09:36:28;;;;;;;0.50;0.50;;;;;;;12.93;64.13;100607.66;4952390;29;20035;-72
2021/10/29 09:39:18;;;;;;;0.47;0.47;;;;;;;12.98;63.62;100592.81;4958099;28;20112;-70
2021/10/29 09:41:44;;;;;;;0.60;0.60;;;;;;;13.04;63.23;100595.53;4960610;28;20022;-70
2021/10/29 09:44:13;;;;;;;0.50;0.50;;;;;;;13.10;63.64;100585.13;4952121;28;20271;-70
2021/10/29 09:46:55;;;;;;;0.60;0.60;;;;;;;13.18;63.02;100598.34;4942573;29;20115;-70
2021/10/29 09:49:32;;;;;;;0.50;0.50;;;;;;;13.20;62.49;100591.34;4942445;29;20294;-70
2021/10/29 09:54:59;;;;;;;0.70;0.70;;;;;;;13.39;62.32;100586.38;4961910;28;20293;-70
2021/10/29 09:57:26;;;;;;;0.40;0.40;;;;;;;13.39;62.61;100584.59;4961369;28;20031;-69
2021/10/29 09:59:56;;;;;;;0.50;0.50;;;;;;;13.48;62.83;100581.25;4960900;29;20035;-70
2021/10/29 10:02:23;;;;;;;0.70;0.70;;;;;;;13.52;62.65;100571.66;4961408;29;20023;-69
2021/10/29 10:04:54;;;;;;;0.40;0.40;;;;;;;13.54;62.55;100569.91;4962201;28;20024;-68
2021/10/29 10:07:22;;;;;;;0.80;0.73;;;;;;;13.63;62.20;100566.50;4961398;28;20063;-70
2021/10/29 10:09:51;;;;;;;0.50;0.50;;;;;;;13.68;62.18;100562.16;4961150;29;20066;-70
2021/10/29 10:12:22;;;;;;;0.40;0.40;;;;;;;13.81;61.68;100561.44;4960723;28;20031;-71
2021/10/29 10:14:54;;;;;;;0.60;0.60;;;;;;;13.90;60.83;100555.41;4949773;29;20118;-71
2021/10/29 10:17:22;;;;;;;0.93;0.80;;;;;;;13.96;60.38;100550.19;4953067;28;20094;-70
2021/10/29 10:19:48;;;;;;;0.60;0.60;;;;;;;14.00;61.32;100545.81;4960864;29;20019;-70
2021/10/29 10:22:16;;;;;;;0.40;0.40;;;;;;;14.07;60.25;100533.63;4960826;28;20019;-70
2021/10/29 10:24:43;;;;;;;0.90;0.90;;;;;;;14.11;60.65;100532.75;4959649;29;20090;-70
2021/10/29 10:27:35;;;;;;;0.43;0.43;;;;;;;14.13;59.98;100525.78;4960375;29;20027;-72
2021/10/29 10:30:17;;;;;;;0.80;0.80;;;;;;;14.21;59.90;100529.38;4960352;28;20035;-74
2021/10/29 10:46:50;;;;;;;0.50;0.50;;;;;;;14.60;58.50;100476.94;4958134;29;20031;-74
2021/10/29 10:49:45;;;;;;;0.77;0.70;;;;;;;14.75;57.59;100475.31;4957055;28;20094;-70
2021/10/29 10:52:17;;;;;;;0.70;0.57;;;;;;;14.69;59.16;100478.72;4960782;28;20023;-69
2021/10/29 10:54:47;;;;;;;0.50;0.50;;;;;;;14.73;58.57;100477.00;4961159;28;20023;-70
2021/10/29 11:00:08;;;;;;;0.70;0.70;;;;;;;14.82;57.32;100477.09;4956551;28;20062;-71
2021/10/29 11:11:13;;;;;;;0.50;0.50;;;;;;;14.99;58.30;100486.84;4959028;28;20035;-71
2021/10/29 11:13:41;;;;;;;0.53;0.53;;;;;;;15.04;58.18;100482.44;4958554;29;20058;-69
2021/10/29 11:16:07;;;;;;;0.30;0.30;;;;;;;15.08;58.18;100489.53;4957296;28;20058;-69
2021/10/29 11:18:38;;;;;;;0.50;0.50;;;;;;;15.08;59.07;100494.78;4957942;28;20027;-71
2021/10/29 11:21:11;;;;;;;0.47;0.47;;;;;;;15.13;58.06;100493.03;4941982;29;20066;-71
2021/10/29 11:23:37;;;;;;;0.40;0.40;;;;;;;15.12;56.84;100491.28;4941623;29;20024;-71
2021/10/29 11:26:05;;;;;;;0.50;0.50;;;;;;;15.22;56.63;100486.94;4958201;29;20026;-73
2021/10/29 11:28:38;;;;;;;0.60;0.60;;;;;;;15.28;56.91;100476.41;4954727;28;20034;-71
2021/10/29 11:31:07;;;;;;;0.67;0.53;;;;;;;15.27;56.61;100474.66;4954108;29;20030;-73
2021/10/29 11:33:33;;;;;;;0.40;0.40;;;;;;;15.32;57.29;100464.09;4959662;28;20107;-71
2021/10/29 11:36:10;;;;;;;0.50;0.50;;;;;;;15.45;56.43;100465.00;4960030;28;20027;-74
2021/10/29 11:38:39;;;;;;;0.43;0.43;;;;;;;15.45;57.12;100460.59;4960332;28;20034;-72
2021/10/29 11:41:07;;;;;;;0.50;0.50;;;;;;;15.48;55.93;100455.34;4959521;28;20039;-73
2021/10/29 11:43:35;;;;;;;0.53;0.53;;;;;;;15.54;55.20;100457.13;4943607;29;20452;-72
2021/10/29 11:46:04;;;;;;;0.40;0.40;;;;;;;15.52;57.08;100445.69;4958960;28;20047;-71
2021/10/29 11:48:31;;;;;;;0.80;0.80;;;;;;;15.53;56.82;100450.94;4960353;28;20114;-72
2021/10/29 11:51:08;;;;;;;0.50;0.50;;;;;;;15.57;56.39;100443.06;4959743;28;20027;-72
2021/10/29 11:53:35;;;;;;;0.50;0.50;;;;;;;15.63;56.09;100445.69;4959329;29;20194;-72
2021/10/29 11:56:04;;;;;;;0.50;0.50;;;;;;;15.70;56.25;100442.19;4959263;28;20075;-71
2021/10/29 11:59:09;;;;;;;0.40;0.40;;;;;;;15.75;55.51;100421.06;4959814;28;20031;-71
2021/10/29 12:01:38;;;;;;;0.40;0.40;;;;;;;15.78;55.34;100431.63;4959579;28;20043;-72
2021/10/29 12:09:32;;;;;;;0.87;0.60;;;;;;;15.96;54.79;100424.59;4959893;29;20156;-71
2021/10/29 12:12:07;;;;;;;0.50;0.50;;;;;;;15.94;56.09;100406.16;4956142;29;20041;-73
2021/10/29 12:14:34;;;;;;;0.63;0.50;;;;;;;15.96;55.86;100400.84;4952575;28;20047;-71
2021/10/29 12:17:23;;;;;;;0.80;0.80;;;;;;;15.98;55.52;100399.97;4957093;28;20023;-70
2021/10/29 12:19:57;;;;;;;0.47;0.47;;;;;;;15.98;55.46;100414.91;4956784;29;20031;-74
2021/10/29 12:25:01;;;;;;;0.50;0.50;;;;;;;16.05;55.35;100422.84;4956862;28;20038;-73
2021/10/29 12:27:40;;;;;;;0.63;0.40;;;;;;;16.07;54.93;100410.50;4956634;29;20412;-71
2021/10/29 12:30:19;;;;;;;0.40;0.40;;;;;;;16.12;55.72;100407.00;4956773;28;20042;-72
2021/10/29 13:03:24;;;;;;;0.47;0.47;;;;;;;15.81;56.70;100357.69;4956196;29;20050;-71
2021/10/29 13:05:53;;;;;;;;;;;;;;;15.75;57.25;100353.31;4956440;29;20028;-71
2021/10/29 13:08:20;;;;;;;0.47;0.47;;;;;;;15.73;56.83;100349.81;4954821;28;19921;-68
2021/10/29 13:10:46;;;;;;;0.60;0.60;;;;;;;15.76;56.36;100349.78;4956819;29;20023;-74
2021/10/29 13:13:20;;;;;;;0.40;0.40;;;;;;;15.73;57.02;100354.19;4956920;28;20161;-69
2021/10/29 13:15:47;;;;;;;0.67;0.60;;;;;;;15.70;57.17;100354.19;4954586;28;20023;-69
2021/10/29 13:18:19;;;;;;;0.60;0.60;;;;;;;15.67;57.53;100357.72;4954552;28;20110;-71
2021/10/29 13:36:33;;;;;;;0.50;0.50;;;;;;;15.66;56.91;100356.84;4957320;29;20046;-71
2021/10/29 13:50:35;;;;;;;0.53;0.53;;;;;;;15.56;57.98;100365.63;4956900;29;20113;-71
2021/10/29 13:53:12;;;;;;;0.50;0.50;;;;;;;15.52;58.30;100361.25;4956840;28;20177;-71
2021/10/29 14:30:33;;;;;;;0.60;0.50;;;;;;;14.61;65.89;100412.84;4959926;29;20507;-68
2021/10/29 14:35:32;;;;;;;0.20;0.20;;;;;;;14.32;68.12;100410.03;4960880;28;20302;-68
2021/10/29 14:42:53;;;;;;;0.50;0.50;;;;;;;14.03;69.90;100403.72;4960685;28;20066;-67
2021/10/29 14:45:27;;;;;;;0.40;0.40;;;;;;;13.94;71.28;100398.41;4960106;28;20027;-66
2021/10/29 15:04:03;;;;;;;0.37;0.37;;;;;;;13.69;70.98;100449.06;4948768;29;20301;-65
2021/10/29 15:32:05;;;;;;;0.60;0.60;;;;;;;13.80;69.29;100425.47;4948248;29;20058;-68
2021/10/29 15:41:06;;;;;;;0.43;0.43;;;;;;;13.75;69.82;100419.28;4948013;29;20031;-68
2021/10/29 15:45:23;;;;;;;0.50;0.50;;;;;;;13.62;69.94;100441.09;4919090;29;20075;-68
2021/10/29 15:48:01;;;;;;;0.57;0.57;;;;;;;13.58;70.14;100434.94;4945961;28;20043;-69
2021/10/29 15:50:35;;;;;;;0.50;0.50;;;;;;;13.56;70.35;100427.00;4959423;29;20114;-69
2021/10/29 15:53:00;;;;;;;0.40;0.40;;;;;;;13.53;70.26;100421.75;4955055;29;20094;-69
2021/10/29 15:55:40;;;;;;;0.60;0.60;;;;;;;13.50;69.92;100432.22;4956570;29;20334;-72
2021/10/29 16:03:17;;;;;;;0.43;0.43;;;;;;;13.48;70.37;100462.00;4957994;28;20122;-71